createdAt,value
2019-04-26T00:02:04.026Z,100353.45
2019-04-26T00:04:32.988Z,100353.64
2019-04-26T00:07:02.012Z,100351.30
2019-04-26T00:09:35.427Z,100345.13
2019-04-26T00:12:18.515Z,100344.57
2019-04-26T00:15:05.128Z,100347.30
2019-04-26T00:17:35.785Z,100344.70
2019-04-26T00:20:07.061Z,100344.20
2019-04-26T00:22:35.668Z,100341.69
2019-04-26T00:25:05.514Z,100337.97
2019-04-26T00:27:34.232Z,100340.49
2019-04-26T00:30:03.294Z,100335.70
2019-04-26T00:32:31.864Z,100330.22
2019-04-26T00:35:00.482Z,100325.81
2019-04-26T00:37:29.102Z,100325.34
2019-04-26T00:39:57.735Z,100317.48
2019-04-26T00:42:26.781Z,100314.98
2019-04-26T00:44:55.907Z,100319.48
2019-04-26T00:47:29.353Z,100314.59
2019-04-26T00:49:58.912Z,100310.39
2019-04-26T00:52:28.512Z,100306.48
2019-04-26T00:54:58.010Z,100303.67
2019-04-26T00:57:28.612Z,100293.30
2019-04-26T00:59:57.533Z,100297.80
2019-04-26T01:02:37.306Z,100297.14
2019-04-26T01:05:06.118Z,100285.45
2019-04-26T01:07:34.727Z,100290.66
2019-04-26T01:10:03.760Z,100287.02
2019-04-26T01:12:32.495Z,100282.44
2019-04-26T01:15:01.104Z,100276.45
2019-04-26T01:17:29.728Z,100275.72
2019-04-26T01:19:59.919Z,100269.45
2019-04-26T01:22:31.572Z,100269.00
2019-04-26T01:25:02.430Z,100269.55
2019-04-26T01:27:32.524Z,100264.14
2019-04-26T01:30:04.170Z,100267.86
2019-04-26T01:33:26.147Z,100264.88
2019-04-26T01:35:55.209Z,100263.67
2019-04-26T01:38:23.930Z,100254.20
2019-04-26T01:40:54.828Z,100251.33
2019-04-26T01:43:33.621Z,100251.30
2019-04-26T01:46:09.266Z,100249.45
2019-04-26T01:48:47.054Z,100247.38
2019-04-26T01:51:22.688Z,100254.19
2019-04-26T01:53:52.827Z,100251.38
2019-04-26T01:56:25.445Z,100258.02
2019-04-26T01:58:57.197Z,100250.34
2019-04-26T02:01:28.048Z,100249.34
2019-04-26T02:04:00.682Z,100245.95
2019-04-26T02:06:33.268Z,100245.78
2019-04-26T02:08:59.288Z,100239.70
2019-04-26T02:11:28.766Z,100234.67
2019-04-26T02:13:57.433Z,100237.55
2019-04-26T02:16:27.010Z,100238.09
2019-04-26T02:18:55.691Z,100238.02
2019-04-26T02:21:26.500Z,100237.05
2019-04-26T02:24:06.847Z,100228.65
2019-04-26T02:26:37.516Z,100222.48
2019-04-26T02:29:14.742Z,100229.55
2019-04-26T02:31:46.352Z,100226.20
2019-04-26T02:34:16.285Z,100224.80
2019-04-26T02:36:57.255Z,100219.30
2019-04-26T02:39:20.897Z,100217.06
2019-04-26T02:41:52.829Z,100213.31
2019-04-26T02:44:26.700Z,100213.41
2019-04-26T02:47:35.084Z,100201.66
2019-04-26T02:50:20.595Z,100202.97
2019-04-26T02:53:10.801Z,100195.54
2019-04-26T02:55:57.355Z,100193.27
2019-04-26T02:58:30.080Z,100198.38
2019-04-26T03:01:00.604Z,100201.62
2019-04-26T03:03:31.675Z,100194.73
2019-04-26T03:06:02.283Z,100200.79
2019-04-26T03:08:35.364Z,100192.95
2019-04-26T03:11:07.379Z,100188.06
2019-04-26T03:13:40.705Z,100193.69
2019-04-26T03:16:25.606Z,100191.70
2019-04-26T03:19:01.803Z,100184.14
2019-04-26T03:21:47.830Z,100183.84
2019-04-26T03:24:25.176Z,100181.16
2019-04-26T03:27:12.139Z,100183.10
2019-04-26T03:30:21.167Z,100188.14
2019-04-26T03:33:08.699Z,100184.06
2019-04-26T03:36:02.998Z,100186.84
2019-04-26T03:38:43.579Z,100184.10
2019-04-26T03:41:42.885Z,100186.66
2019-04-26T03:44:26.297Z,100187.77
2019-04-26T03:46:57.965Z,100193.09
2019-04-26T03:49:33.879Z,100190.63
2019-04-26T03:52:25.205Z,100186.66
2019-04-26T03:54:56.887Z,100186.66
2019-04-26T03:57:46.797Z,100187.50
2019-04-26T04:00:22.668Z,100186.10
2019-04-26T04:03:01.506Z,100182.55
2019-04-26T04:05:41.983Z,100188.55
2019-04-26T04:08:14.246Z,100192.84
2019-04-26T04:10:58.234Z,100185.53
2019-04-26T04:13:51.012Z,100184.43
2019-04-26T04:16:33.593Z,100187.57
2019-04-26T04:19:24.644Z,100188.72
2019-04-26T04:22:07.693Z,100191.50
2019-04-26T04:24:41.370Z,100192.55
2019-04-26T04:27:31.751Z,100194.22
2019-04-26T04:30:06.513Z,100191.98
2019-04-26T04:32:52.026Z,100189.56
2019-04-26T04:35:23.905Z,100187.33
2019-04-26T04:38:08.472Z,100190.94
2019-04-26T04:40:33.833Z,100195.83
2019-04-26T04:43:19.099Z,100192.19
2019-04-26T04:46:19.059Z,100190.41
2019-04-26T04:49:06.753Z,100193.86
2019-04-26T04:51:59.040Z,100192.89
2019-04-26T04:55:06.774Z,100190.55
2019-04-26T04:57:48.143Z,100187.94
2019-04-26T05:00:39.404Z,100195.51
2019-04-26T05:03:27.831Z,100191.89
2019-04-26T05:06:18.966Z,100197.51
2019-04-26T05:08:55.391Z,100202.36
2019-04-26T05:11:36.124Z,100191.10
2019-04-26T05:14:27.350Z,100192.87
2019-04-26T05:17:02.062Z,100191.95
2019-04-26T05:19:56.515Z,100187.30
2019-04-26T05:22:43.455Z,100192.23
2019-04-26T05:25:46.863Z,100196.25
2019-04-26T05:28:57.035Z,100183.08
2019-04-26T05:31:32.578Z,100187.91
2019-04-26T05:34:17.595Z,100189.77
2019-04-26T05:37:04.418Z,100191.20
2019-04-26T05:39:57.473Z,100186.84
2019-04-26T05:43:03.654Z,100183.48
2019-04-26T05:45:50.003Z,100182.89
2019-04-26T05:48:52.048Z,100199.80
2019-04-26T05:51:57.836Z,100203.23
2019-04-26T05:54:56.149Z,100201.48
2019-04-26T05:57:46.310Z,100205.15
2019-04-26T06:00:25.265Z,100202.25
2019-04-26T06:03:33.720Z,100207.02
2019-04-26T06:06:47.530Z,100203.94
2019-04-26T06:09:58.634Z,100202.25
2019-04-26T06:12:52.418Z,100203.18
2019-04-26T06:15:34.645Z,100195.98
2019-04-26T06:18:16.922Z,100202.72
2019-04-26T06:20:55.423Z,100196.25
2019-04-26T06:23:38.864Z,100199.78
2019-04-26T06:26:41.755Z,100196.86
2019-04-26T06:29:39.034Z,100192.69
2019-04-26T06:32:16.741Z,100203.84
2019-04-26T06:34:57.216Z,100194.30
2019-04-26T06:37:46.974Z,100200.05
2019-04-26T06:40:41.935Z,100195.34
2019-04-26T06:43:14.907Z,100189.94
2019-04-26T06:46:06.035Z,100185.23
2019-04-26T06:49:11.998Z,100186.06
2019-04-26T06:51:57.010Z,100187.85
2019-04-26T06:54:46.472Z,100182.70
2019-04-26T06:57:59.350Z,100183.11
2019-04-26T07:00:38.815Z,100180.34
2019-04-26T07:03:42.080Z,100181.96
2019-04-26T07:06:13.981Z,100187.44
2019-04-26T07:08:57.722Z,100180.44
2019-04-26T07:11:38.423Z,100177.81
2019-04-26T07:14:43.701Z,100170.39
2019-04-26T07:17:18.660Z,100177.16
2019-04-26T07:20:23.357Z,100167.77
2019-04-26T07:23:05.961Z,100166.48
2019-04-26T07:25:59.206Z,100168.09
2019-04-26T07:29:05.020Z,100166.78
2019-04-26T07:31:58.416Z,100164.65
2019-04-26T07:34:53.047Z,100156.98
2019-04-26T07:37:49.328Z,100154.61
2019-04-26T07:40:46.458Z,100153.48
2019-04-26T07:43:25.639Z,100158.46
2019-04-26T07:46:17.835Z,100163.59
2019-04-26T07:49:12.508Z,100163.97
2019-04-26T07:51:53.749Z,100158.13
2019-04-26T07:55:03.234Z,100158.05
2019-04-26T07:57:50.085Z,100160.41
2019-04-26T08:00:45.322Z,100155.81
2019-04-26T08:03:27.710Z,100158.55
2019-04-26T08:06:23.821Z,100154.35
2019-04-26T08:08:56.354Z,100153.16
2019-04-26T08:11:34.643Z,100155.15
2019-04-26T08:14:13.080Z,100155.64
2019-04-26T08:17:04.826Z,100146.97
2019-04-26T08:19:39.519Z,100149.20
2019-04-26T08:22:18.471Z,100150.93
2019-04-26T08:24:44.276Z,100148.58
2019-04-26T08:27:22.812Z,100138.28
2019-04-26T08:29:49.730Z,100134.37
2019-04-26T08:32:22.328Z,100134.83
2019-04-26T08:34:57.090Z,100130.61
2019-04-26T08:37:46.397Z,100129.33
2019-04-26T08:40:23.302Z,100136.97
2019-04-26T08:42:48.010Z,100134.95
2019-04-26T08:45:20.554Z,100138.58
2019-04-26T08:50:30.239Z,100141.56
2019-04-26T08:53:02.647Z,100138.80
2019-04-26T08:55:34.124Z,100147.17
2019-04-26T08:58:06.115Z,100149.02
2019-04-26T09:00:42.339Z,100146.87
2019-04-26T09:03:14.951Z,100147.08
2019-04-26T09:06:05.441Z,100143.27
2019-04-26T09:08:39.267Z,100127.67
2019-04-26T09:11:23.655Z,100132.52
2019-04-26T09:13:43.976Z,100130.38
2019-04-26T09:16:15.835Z,100134.00
2019-04-26T09:18:52.489Z,100134.76
2019-04-26T09:21:17.622Z,100133.76
2019-04-26T09:23:53.873Z,100133.55
2019-04-26T09:26:30.131Z,100137.70
2019-04-26T09:29:18.868Z,100136.47
2019-04-26T09:31:50.456Z,100133.51
2019-04-26T09:34:30.241Z,100118.23
2019-04-26T09:36:58.862Z,100121.27
2019-04-26T09:39:27.699Z,100115.14
2019-04-26T09:42:01.247Z,100122.47
2019-04-26T09:44:41.475Z,100119.90
2019-04-26T09:47:11.165Z,100119.30
2019-04-26T09:49:47.096Z,100112.76
2019-04-26T09:52:19.996Z,100117.11
2019-04-26T09:54:48.615Z,100119.88
2019-04-26T09:57:17.234Z,100116.78
2019-04-26T09:59:46.303Z,100116.22
2019-04-26T10:02:15.176Z,100117.78
2019-04-26T10:04:43.802Z,100119.31
2019-04-26T10:07:12.497Z,100119.26
2019-04-26T10:09:41.117Z,100121.24
2019-04-26T10:12:11.365Z,100114.81
2019-04-26T10:14:46.472Z,100112.14
2019-04-26T10:17:17.464Z,100111.45
2019-04-26T10:19:53.898Z,100113.73
2019-04-26T10:22:26.311Z,100111.27
2019-04-26T10:24:56.774Z,100115.42
2019-04-26T10:27:28.055Z,100110.23
2019-04-26T10:30:07.786Z,100102.42
2019-04-26T10:32:28.664Z,100106.20
2019-04-26T10:34:57.276Z,100103.95
2019-04-26T10:37:38.884Z,100105.54
2019-04-26T10:39:57.784Z,100106.33
2019-04-26T10:42:27.024Z,100114.47
2019-04-26T10:44:55.618Z,100106.40
2019-04-26T10:47:26.708Z,100113.53
2019-04-26T10:49:58.277Z,100109.52
2019-04-26T10:52:49.405Z,100115.01
2019-04-26T10:55:21.951Z,100110.05
2019-04-26T10:57:58.762Z,100111.80
2019-04-26T11:00:31.784Z,100110.56
2019-04-26T11:03:04.431Z,100105.63
2019-04-26T11:05:30.790Z,100102.03
2019-04-26T11:07:59.396Z,100102.39
2019-04-26T11:10:29.508Z,100102.33
2019-04-26T11:12:58.068Z,100101.09
2019-04-26T11:15:29.126Z,100093.95
2019-04-26T11:17:57.959Z,100095.53
2019-04-26T11:20:28.220Z,100097.71
2019-04-26T11:22:59.605Z,100091.20
2019-04-26T12:09:26.351Z,100091.00
2019-04-26T12:12:04.382Z,100096.22
2019-04-26T12:14:29.442Z,100100.30
2019-04-26T12:16:59.594Z,100097.63
2019-04-26T12:19:27.747Z,100104.32
2019-04-26T12:21:56.278Z,100109.98
2019-04-26T12:24:29.566Z,100106.09
2019-04-26T12:26:57.577Z,100105.81
2019-04-26T12:29:26.283Z,100098.86
2019-04-26T12:31:56.483Z,100096.82
2019-04-26T12:34:25.263Z,100098.34
2019-04-26T12:36:53.917Z,100103.35
2019-04-26T12:39:23.085Z,100107.14
2019-04-26T12:41:51.798Z,100107.09
2019-04-26T12:44:20.923Z,100099.39
2019-04-26T12:47:05.154Z,100102.73
2019-04-26T12:49:35.465Z,100098.72
2019-04-26T12:52:04.372Z,100105.05
2019-04-26T12:54:32.982Z,100086.17
2019-04-26T12:57:05.730Z,100083.67
2019-04-26T12:59:43.634Z,100087.30
2019-04-26T13:02:05.808Z,100085.91
2019-04-26T13:04:36.197Z,100093.51
2019-04-26T13:07:22.663Z,100090.14
2019-04-26T13:09:43.389Z,100093.20
2019-04-26T13:12:13.740Z,100090.14
2019-04-26T13:14:59.976Z,100087.31
2019-04-26T13:17:31.309Z,100092.95
2019-04-26T13:20:00.926Z,100091.14
2019-04-26T13:22:31.939Z,100089.27
2019-04-26T13:24:59.966Z,100093.31
2019-04-26T13:27:28.994Z,100095.12
2019-04-26T13:30:02.608Z,100082.59
2019-04-26T13:32:28.483Z,100085.81
2019-04-26T13:34:57.046Z,100079.81
2019-04-26T13:37:25.691Z,100085.75
2019-04-26T13:39:55.162Z,100089.31
2019-04-26T13:42:26.503Z,100088.02
2019-04-26T13:44:56.701Z,100086.20
2019-04-26T13:47:42.897Z,100096.36
2019-04-26T13:50:13.357Z,100092.48
2019-04-26T13:52:41.961Z,100086.77
2019-04-26T13:55:10.669Z,100089.95
2019-04-26T13:57:40.255Z,100087.38
2019-04-26T14:00:11.990Z,100090.73
2019-04-26T14:02:40.599Z,100101.47
2019-04-26T14:05:11.149Z,100109.95
2019-04-26T14:07:39.866Z,100101.97
2019-04-26T14:10:08.578Z,100111.08
2019-04-26T14:12:37.460Z,100109.51
2019-04-26T14:15:08.638Z,100108.40
2019-04-26T14:17:37.051Z,100113.89
2019-04-26T14:20:06.553Z,100108.13
2019-04-26T14:22:37.118Z,100108.84
2019-04-26T14:25:11.944Z,100114.05
2019-04-26T14:27:49.539Z,100112.75
2019-04-26T14:30:16.642Z,100111.09
2019-04-26T14:32:45.288Z,100107.30
2019-04-26T14:35:15.741Z,100115.67
2019-04-26T14:37:45.524Z,100124.31
2019-04-26T14:40:18.039Z,100123.02
2019-04-26T14:42:46.968Z,100124.78
2019-04-26T14:45:23.224Z,100124.09
2019-04-26T14:47:47.550Z,100127.12
2019-04-26T14:50:16.650Z,100120.37
2019-04-26T14:52:45.732Z,100129.17
2019-04-26T14:55:16.595Z,100129.08
2019-04-26T14:57:46.808Z,100125.97
2019-04-26T15:00:16.824Z,100128.98
2019-04-26T15:02:50.227Z,100128.66
2019-04-26T15:05:26.301Z,100121.13
2019-04-26T15:07:56.559Z,100119.91
2019-04-26T15:10:26.810Z,100120.38
2019-04-26T15:13:12.463Z,100117.89
2019-04-26T15:15:33.257Z,100128.69
2019-04-26T15:17:59.758Z,100127.19
2019-04-26T15:20:29.159Z,100133.38
2019-04-26T15:22:57.768Z,100138.25
2019-04-26T15:25:26.374Z,100130.62
2019-04-26T15:27:54.995Z,100134.53
2019-04-26T15:30:24.999Z,100135.18
2019-04-26T15:32:54.660Z,100136.34
2019-04-26T15:35:23.713Z,100139.72
2019-04-26T15:37:53.459Z,100131.81
2019-04-26T15:40:27.341Z,100151.89
2019-04-26T15:43:14.346Z,100144.50
2019-04-26T15:45:42.545Z,100149.56
2019-04-26T15:48:16.163Z,100145.88
2019-04-26T15:50:50.261Z,100151.12
2019-04-26T15:53:15.564Z,100147.59
2019-04-26T15:55:44.120Z,100144.48
2019-04-26T15:58:12.914Z,100148.83
2019-04-26T16:00:42.889Z,100147.41
2019-04-26T16:03:12.821Z,100149.59
2019-04-26T16:05:43.311Z,100148.09
2019-04-26T16:08:13.053Z,100151.26
2019-04-26T16:10:43.033Z,100139.95
2019-04-26T16:13:21.465Z,100150.39
2019-04-26T16:15:43.578Z,100145.34
2019-04-26T16:18:17.005Z,100146.13
2019-04-26T16:20:44.370Z,100140.47
2019-04-26T16:23:13.579Z,100139.08
2019-04-26T16:25:42.878Z,100131.39
2019-04-26T16:28:16.333Z,100140.62
2019-04-26T16:30:53.176Z,100135.64
2019-04-26T16:33:28.349Z,100141.23
2019-04-26T16:35:57.470Z,100144.28
2019-04-26T16:38:34.296Z,100151.50
2019-04-26T16:41:03.477Z,100162.87
2019-04-26T16:43:37.750Z,100149.58
2019-04-26T16:46:02.551Z,100153.59
2019-04-26T16:48:31.166Z,100153.52
2019-04-26T16:51:00.897Z,100156.02
2019-04-26T17:22:56.997Z,100187.03
2019-04-26T17:25:37.653Z,100188.34
2019-04-26T17:28:06.374Z,100177.02
2019-04-26T17:30:40.995Z,100189.05
2019-04-26T17:33:05.436Z,100187.77
2019-04-26T17:35:36.722Z,100193.11
2019-04-26T17:38:05.172Z,100194.42
2019-04-26T17:40:36.668Z,100198.55
2019-04-26T17:43:05.459Z,100205.87
2019-04-26T17:45:36.243Z,100199.83
2019-04-26T17:48:06.501Z,100200.41
2019-04-26T17:50:38.878Z,100208.77
2019-04-26T17:53:06.546Z,100206.55
2019-04-26T17:55:36.123Z,100201.39
2019-04-26T17:58:11.811Z,100196.95
2019-04-26T18:00:46.081Z,100197.14
2019-04-26T18:03:12.547Z,100208.20
2019-04-26T18:05:50.070Z,100203.41
2019-04-26T18:08:31.606Z,100199.55
2019-04-26T18:10:41.957Z,100199.58
2019-04-26T18:13:16.363Z,100210.67
2019-04-26T18:15:46.343Z,100221.42
2019-04-26T18:18:18.049Z,100224.85
2019-04-26T18:20:51.171Z,100230.28
2019-04-26T18:23:21.426Z,100245.79
2019-04-26T18:25:50.030Z,100246.45
2019-04-26T18:28:18.741Z,100258.50
2019-04-26T18:30:47.823Z,100262.39
2019-04-26T18:33:17.620Z,100254.20
2019-04-26T18:35:49.131Z,100262.23
2019-04-26T18:38:17.696Z,100271.02
2019-04-26T18:40:59.987Z,100273.67
2019-04-26T18:43:21.670Z,100274.51
2019-04-26T18:45:48.546Z,100284.72
2019-04-26T18:48:17.564Z,100297.64
2019-04-26T18:50:46.177Z,100301.23
2019-04-26T18:53:19.510Z,100311.28
2019-04-26T18:55:51.378Z,100320.64
2019-04-26T18:58:19.995Z,100317.77
2019-04-26T19:31:33.729Z,100341.13
2019-04-26T19:34:02.590Z,100333.92
2019-04-26T19:36:32.852Z,100339.52
2019-04-26T19:39:03.637Z,100346.29
2019-04-26T19:41:32.332Z,100340.82
2019-04-26T19:44:01.765Z,100335.66
2019-04-26T19:46:32.238Z,100332.09
2019-04-26T19:49:07.939Z,100338.05
2019-04-26T19:51:38.202Z,100354.88
2019-04-26T19:54:31.394Z,100355.92
2019-04-26T19:57:03.560Z,100355.39
2019-04-26T19:59:33.212Z,100362.69
2019-04-26T20:02:01.574Z,100365.91
2019-04-26T20:04:33.857Z,100377.66
2019-04-26T20:07:01.346Z,100382.95
2019-04-26T20:09:31.806Z,100382.90
2019-04-26T20:12:02.522Z,100396.72
2019-04-26T20:14:45.044Z,100399.67
2019-04-26T20:17:02.071Z,100398.26
2019-04-26T20:19:35.210Z,100395.12
2019-04-26T20:22:01.892Z,100385.87
2019-04-26T20:24:31.487Z,100378.58
2019-04-26T20:27:03.132Z,100384.52
2019-04-26T20:29:32.184Z,100390.60
2019-04-26T20:32:09.101Z,100404.31
2019-04-26T20:34:37.708Z,100413.98
2019-04-26T20:37:06.422Z,100433.42
2019-04-26T20:39:35.458Z,100447.03
2019-04-26T20:42:04.156Z,100451.44
2019-04-26T20:44:48.060Z,100449.05
2019-04-26T20:47:07.621Z,100455.21
2019-04-26T20:49:34.027Z,100457.13
2019-04-26T20:52:02.749Z,100437.55
2019-04-26T20:54:31.647Z,100427.55
2019-04-26T20:57:01.866Z,100436.29
2019-04-26T20:59:30.874Z,100443.38
2019-04-26T21:02:04.678Z,100432.50
2019-04-26T21:04:37.957Z,100417.70
2019-04-26T21:07:01.885Z,100408.16
2019-04-26T21:09:32.268Z,100412.23
2019-04-26T21:12:01.926Z,100409.80
2019-04-26T21:14:31.619Z,100410.08
2019-04-26T21:17:00.344Z,100410.86
2019-04-26T21:19:28.948Z,100403.72
2019-04-26T21:21:57.780Z,100402.30
2019-04-26T21:24:28.037Z,100406.78
2019-04-26T21:26:59.921Z,100403.91
2019-04-26T21:29:46.071Z,100399.99
2019-04-26T21:32:20.280Z,100406.42
2019-04-26T21:34:53.505Z,100404.94
2019-04-26T21:37:23.301Z,100404.63
2019-04-26T21:40:09.183Z,100400.11
2019-04-26T21:42:37.861Z,100420.00
2019-04-26T21:45:07.585Z,100447.41
2019-04-26T21:47:37.228Z,100453.97
2019-04-26T21:50:07.584Z,100458.67
2019-04-26T21:52:36.198Z,100476.18
2019-04-26T21:55:06.774Z,100480.48
2019-04-26T21:57:35.374Z,100502.13
2019-04-26T22:00:07.042Z,100503.16
2019-04-26T22:02:37.460Z,100495.22
2019-04-26T22:05:08.005Z,100470.02
2019-04-26T22:07:39.527Z,100462.72
2019-04-26T22:10:10.678Z,100487.56
2019-04-26T22:12:39.712Z,100510.18
2019-04-26T22:15:19.938Z,100524.75
2019-04-26T22:17:50.188Z,100545.28
2019-04-26T22:20:38.462Z,100558.69
2019-04-26T22:23:16.030Z,100575.22
2019-04-26T22:25:43.669Z,100587.42
2019-04-26T22:28:13.065Z,100606.05
2019-04-26T22:30:41.823Z,100614.34
2019-04-26T22:33:10.642Z,100596.37
2019-04-26T22:35:39.558Z,100600.23
2019-04-26T22:38:08.165Z,100607.58
2019-04-26T22:40:36.775Z,100622.47
2019-04-26T22:43:16.281Z,100621.44
2019-04-26T22:45:46.918Z,100616.37
2019-04-26T22:48:23.155Z,100609.08
2019-04-26T22:50:47.545Z,100623.73
2019-04-26T22:53:16.228Z,100620.14
2019-04-26T22:55:44.835Z,100605.94
2019-04-26T22:58:13.576Z,100587.72
2019-04-26T23:00:43.616Z,100586.03
2019-04-26T23:03:13.730Z,100586.09
2019-04-26T23:05:43.253Z,100581.40
2019-04-26T23:08:13.571Z,100591.28
2019-04-26T23:10:49.814Z,100581.53
2019-04-26T23:13:25.693Z,100585.03
2019-04-26T23:15:56.005Z,100586.25
2019-04-26T23:18:33.442Z,100593.52
2019-04-26T23:21:07.801Z,100580.88
2019-04-26T23:23:46.147Z,100589.86
2019-04-26T23:26:15.133Z,100591.30
2019-04-26T23:28:43.686Z,100586.25
2019-04-26T23:31:13.419Z,100586.84
2019-04-26T23:33:42.934Z,100586.13
2019-04-26T23:36:13.479Z,100590.08
2019-04-26T23:38:43.502Z,100596.80
2019-04-26T23:41:14.166Z,100596.05
2019-04-26T23:43:42.943Z,100602.55
2019-04-26T23:46:14.310Z,100604.45
2019-04-26T23:48:48.482Z,100602.09
2019-04-26T23:51:13.102Z,100590.33
2019-04-26T23:53:42.862Z,100578.89
2019-04-26T23:56:16.168Z,100574.73
2019-04-26T23:58:44.148Z,100573.77
